Time;durP1;ratioP1;P1;durP2;ratioP2;P2;SDS_P1;SDS_P2;PMS_P1;PMS_P2;Temp;Humidity;BMP_temperature;BMP_pressure;BME280_temperature;BME280_humidity;BME280_pressure;Samples;Min_cycle;Max_cycle;Signal;HPM_P1;HPM_P2
2021/04/08 00:01:22;;;;;;;3.30;2.17;;;;;;;21.43;15.67;97819.63;5073039;28;20078;-89
2021/04/08 00:03:48;;;;;;;3.85;1.90;;;;;;;21.37;15.64;97817.75;5059432;28;20452;-89
2021/04/08 00:06:14;;;;;;;4.45;1.98;;;;;;;21.03;15.71;97821.38;5070969;28;20374;-89
2021/04/08 00:08:40;;;;;;;3.58;2.00;;;;;;;21.39;15.42;97823.69;5074082;28;20028;-88
2021/04/08 00:11:07;;;;;;;11.15;3.40;;;;;;;21.46;15.18;97818.81;5071711;28;20350;-88
2021/04/08 00:13:34;;;;;;;9.05;2.67;;;;;;;21.12;15.49;97809.75;5080798;28;20067;-88
2021/04/08 00:16:02;;;;;;;3.90;2.00;;;;;;;21.47;15.24;97805.63;5092796;28;20119;-88
2021/04/08 00:18:29;;;;;;;5.85;2.88;;;;;;;21.38;15.42;97808.19;5093142;28;20024;-88
2021/04/08 00:20:55;;;;;;;5.85;2.88;;;;;;;21.52;15.40;97813.53;5095094;28;20111;-89
2021/04/08 00:23:21;;;;;;;5.55;2.65;;;;;;;21.29;15.36;97803.91;5080171;28;20036;-90
2021/04/08 00:25:47;;;;;;;5.22;2.45;;;;;;;21.70;14.97;97814.84;5093432;28;20122;-90
2021/04/08 00:28:13;;;;;;;4.93;2.47;;;;;;;21.70;15.37;97809.25;5091787;28;20031;-89
2021/04/08 00:30:43;;;;;;;5.03;2.67;;;;;;;21.18;15.58;97806.06;5096383;28;20036;-90
2021/04/08 00:33:11;;;;;;;9.55;3.42;;;;;;;21.48;15.26;97813.59;5095394;28;20028;-90
2021/04/08 00:35:38;;;;;;;3.78;2.45;;;;;;;21.66;14.94;97828.06;5087059;28;20039;-90
2021/04/08 00:38:04;;;;;;;7.10;2.90;;;;;;;21.43;15.19;97811.25;5100140;28;20166;-88
2021/04/08 00:40:31;;;;;;;9.05;2.75;;;;;;;21.36;15.31;97816.97;5092949;28;20039;-88
2021/04/08 00:42:58;;;;;;;4.20;2.33;;;;;;;21.51;15.39;97820.31;5095181;28;20047;-88
2021/04/08 00:45:24;;;;;;;4.43;2.38;;;;;;;21.55;15.26;97827.44;5093301;28;20040;-88
2021/04/08 00:47:50;;;;;;;4.22;2.20;;;;;;;21.64;15.04;97818.50;5091756;28;20028;-88
2021/04/08 00:50:17;;;;;;;5.00;2.60;;;;;;;21.62;15.10;97809.75;5092469;28;20040;-88
2021/04/08 00:52:56;;;;;;;19.08;5.82;;;;;;;21.88;14.97;97814.56;5093408;28;20111;-88
2021/04/08 00:55:28;;;;;;;17.63;6.00;;;;;;;21.91;14.65;97811.69;5093598;28;20500;-88
2021/04/08 00:57:56;;;;;;;11.93;3.83;;;;;;;21.77;14.83;97814.72;5090037;28;20053;-87
2021/04/08 01:00:24;;;;;;;11.80;4.25;;;;;;;22.03;14.54;97810.31;5092765;28;20114;-88
2021/04/08 01:02:50;;;;;;;10.65;3.95;;;;;;;22.12;14.43;97810.53;5091130;28;20062;-88
2021/04/08 01:05:16;;;;;;;10.63;4.07;;;;;;;21.92;14.70;97806.88;5100853;28;20032;-87
2021/04/08 01:07:42;;;;;;;8.52;2.90;;;;;;;21.74;14.63;97826.72;5091202;28;20027;-87
2021/04/08 01:10:11;;;;;;;6.60;3.08;;;;;;;21.56;14.95;97825.44;5098738;28;20364;-87
2021/04/08 01:12:37;;;;;;;5.57;2.72;;;;;;;21.21;15.35;97821.19;5097649;28;20472;-88
2021/04/08 01:15:06;;;;;;;6.28;3.55;;;;;;;21.26;15.17;97832.66;5092195;28;20084;-87
2021/04/08 01:18:03;;;;;;;5.75;2.75;;;;;;;21.08;15.26;97829.31;5092301;28;20024;-87
2021/04/08 01:21:17;;;;;;;6.60;2.60;;;;;;;20.98;15.47;97832.25;5088239;28;20384;-88
2021/04/08 01:24:19;;;;;;;4.85;2.60;;;;;;;21.16;15.33;97827.22;5028132;28;20479;-88
2021/04/08 01:27:24;;;;;;;15.60;5.82;;;;;;;21.29;15.19;97831.03;5089262;28;20060;-89
2021/04/08 01:30:11;;;;;;;10.32;3.85;;;;;;;21.46;15.15;97832.78;5083140;28;20062;-89
2021/04/08 01:32:43;;;;;;;5.40;2.70;;;;;;;20.80;15.56;97826.88;5089761;28;20078;-91
2021/04/08 01:35:10;;;;;;;5.97;2.83;;;;;;;20.86;15.56;97827.22;5091943;28;20383;-91
2021/04/08 01:38:12;;;;;;;7.47;3.05;;;;;;;21.28;15.07;97832.25;5092462;28;20032;-91
2021/04/08 01:40:39;;;;;;;6.10;3.70;;;;;;;21.74;14.69;97834.31;4995827;28;20081;-91
2021/04/08 01:43:08;;;;;;;7.72;3.30;;;;;;;21.66;14.82;97830.03;5082381;28;20156;-90
2021/04/08 01:45:35;;;;;;;8.95;3.50;;;;;;;21.85;14.57;97837.75;5093251;28;20369;-89
2021/04/08 01:48:05;;;;;;;5.63;3.20;;;;;;;21.87;14.46;97833.31;5095501;28;20550;-89
2021/04/08 01:50:33;;;;;;;6.60;2.85;;;;;;;21.79;14.44;97828.25;5092128;28;20612;-89
2021/04/08 01:53:03;;;;;;;7.22;2.95;;;;;;;21.82;14.48;97839.34;5092097;28;20032;-90
2021/04/08 01:55:33;;;;;;;6.57;3.13;;;;;;;21.75;14.44;97831.09;5073623;28;20069;-90
2021/04/08 01:58:00;;;;;;;6.85;2.53;;;;;;;21.92;14.30;97837.63;5092245;28;20039;-90
2021/04/08 02:00:26;;;;;;;4.18;2.35;;;;;;;21.32;14.83;97832.97;5074738;28;20468;-89
2021/04/08 02:02:55;;;;;;;3.85;2.03;;;;;;;21.20;15.13;97833.56;5098819;28;20051;-90
2021/04/08 02:05:25;;;;;;;7.30;3.47;;;;;;;21.15;15.05;97828.44;5093389;28;20433;-90
2021/04/08 02:07:54;;;;;;;13.32;4.63;;;;;;;21.48;14.72;97827.53;5092600;28;20027;-89
2021/04/08 02:10:22;;;;;;;5.47;2.55;;;;;;;21.42;14.60;97829.25;5091294;28;20430;-90
2021/04/08 02:12:50;;;;;;;4.70;2.80;;;;;;;21.49;14.71;97834.72;5092240;28;20025;-90
2021/04/08 02:15:20;;;;;;;26.52;7.88;;;;;;;21.62;14.38;97829.31;5081227;28;20074;-90
2021/04/08 02:17:50;;;;;;;14.10;5.53;;;;;;;21.35;14.77;97820.97;5090006;28;20118;-90
2021/04/08 02:20:19;;;;;;;9.75;3.58;;;;;;;20.74;15.45;97814.63;5089694;28;20115;-89
2021/04/08 02:22:48;;;;;;;14.18;5.85;;;;;;;20.59;15.60;97814.00;5089875;28;20479;-90
2021/04/08 02:25:16;;;;;;;12.43;4.25;;;;;;;20.79;15.48;97814.16;5102439;28;20103;-90
2021/04/08 02:27:43;;;;;;;8.45;3.63;;;;;;;21.18;15.07;97806.06;5095115;28;20545;-90
2021/04/08 02:30:13;;;;;;;21.13;6.28;;;;;;;21.04;15.22;97811.84;5077749;28;20028;-88
2021/04/08 02:32:40;;;;;;;4.70;2.53;;;;;;;20.58;15.64;97806.81;5093679;28;20073;-88
2021/04/08 02:35:09;;;;;;;11.43;3.20;;;;;;;20.91;15.44;97807.22;5090084;28;20032;-88
2021/04/08 02:37:36;;;;;;;16.23;5.07;;;;;;;21.09;15.21;97807.78;5075830;28;20036;-89
2021/04/08 02:40:09;;;;;;;10.50;3.50;;;;;;;21.13;15.12;97806.53;5091572;28;20028;-89
2021/04/08 02:42:35;;;;;;;14.77;5.53;;;;;;;21.34;14.87;97811.81;5093178;28;20060;-88
2021/04/08 02:45:03;;;;;;;8.38;3.58;;;;;;;21.34;14.81;97822.97;5092989;28;20081;-88
2021/04/08 02:47:29;;;;;;;4.43;2.25;;;;;;;20.96;15.55;97817.91;5092446;28;20425;-88
2021/04/08 02:49:55;;;;;;;3.95;2.33;;;;;;;20.29;15.95;97821.50;5094844;28;20028;-89
2021/04/08 02:52:25;;;;;;;4.57;2.70;;;;;;;20.90;15.24;97823.16;5074668;28;20486;-88
2021/04/08 02:54:59;;;;;;;6.45;2.72;;;;;;;21.27;15.10;97830.66;5092920;28;20059;-89
2021/04/08 02:57:30;;;;;;;6.05;2.40;;;;;;;20.95;15.38;97828.28;5063420;28;20110;-89
2021/04/08 03:00:05;;;;;;;6.30;2.67;;;;;;;20.97;15.39;97816.69;5093987;28;20036;-89
2021/04/08 03:02:34;;;;;;;6.00;2.65;;;;;;;21.26;15.02;97829.84;5090444;28;20035;-89
2021/04/08 03:05:01;;;;;;;6.32;2.92;;;;;;;20.99;15.36;97831.81;5094361;28;20035;-89
2021/04/08 03:07:46;;;;;;;3.28;2.25;;;;;;;20.95;15.44;97839.47;5092986;28;20035;-89
2021/04/08 03:10:14;;;;;;;2.75;1.73;;;;;;;21.06;15.21;97836.53;5090583;28;20119;-89
2021/04/08 03:12:49;;;;;;;3.28;2.22;;;;;;;20.90;15.39;97836.34;5092883;28;20074;-89
2021/04/08 03:15:20;;;;;;;4.82;2.58;;;;;;;20.81;15.36;97838.84;5093203;28;20054;-89
2021/04/08 03:17:51;;;;;;;4.95;2.40;;;;;;;21.22;15.00;97836.72;5092782;28;20082;-88
2021/04/08 03:20:18;;;;;;;13.57;5.13;;;;;;;21.56;14.83;97839.41;5075235;28;20028;-88
2021/04/08 03:22:45;;;;;;;5.78;2.88;;;;;;;21.67;14.67;97837.22;5093611;28;20028;-89
2021/04/08 03:25:12;;;;;;;4.22;2.40;;;;;;;20.72;15.51;97841.34;5080632;28;20032;-89
2021/04/08 03:27:40;;;;;;;5.57;3.45;;;;;;;20.94;15.36;97842.66;5091414;28;20040;-89
2021/04/08 03:30:16;;;;;;;5.63;3.13;;;;;;;20.86;15.41;97841.97;5090824;28;20508;-89
2021/04/08 03:32:44;;;;;;;4.63;2.95;;;;;;;20.62;15.78;97840.25;5089037;28;20065;-89
2021/04/08 03:35:12;;;;;;;8.38;3.45;;;;;;;21.01;15.39;97834.97;5091306;28;20166;-90
2021/04/08 03:37:39;;;;;;;5.13;2.55;;;;;;;21.22;15.26;97840.28;5091492;28;20063;-88
2021/04/08 03:40:07;;;;;;;15.40;5.43;;;;;;;20.75;15.74;97843.31;5093077;28;20076;-88
2021/04/08 03:42:34;;;;;;;6.15;2.42;;;;;;;20.87;15.71;97842.75;5093096;28;20032;-88
2021/04/08 03:45:02;;;;;;;8.82;3.35;;;;;;;20.02;16.49;97852.81;5092536;28;20496;-88
2021/04/08 03:47:29;;;;;;;17.00;7.45;;;;;;;20.62;15.90;97845.84;5086835;28;20028;-87
2021/04/08 03:49:56;;;;;;;3.53;2.20;;;;;;;20.93;15.82;97855.84;5091847;28;20039;-89
2021/04/08 03:52:22;;;;;;;15.20;5.25;;;;;;;21.10;15.59;97852.03;5090532;28;20479;-88
2021/04/08 03:54:50;;;;;;;16.95;7.03;;;;;;;21.32;15.45;97852.53;5075830;28;20476;-89
2021/04/08 03:57:20;;;;;;;23.60;10.45;;;;;;;21.78;15.01;97852.59;5092460;28;20050;-88
2021/04/08 03:59:47;;;;;;;38.30;16.15;;;;;;;21.78;14.89;97851.81;5074388;28;20496;-88
2021/04/08 04:02:15;;;;;;;67.43;27.10;;;;;;;21.82;15.02;97850.53;5090966;28;20032;-88
2021/04/08 04:04:42;;;;;;;47.08;15.20;;;;;;;22.05;14.73;97858.19;5088458;28;20123;-87
2021/04/08 04:07:09;;;;;;;15.60;5.13;;;;;;;22.01;14.78;97852.66;5083243;28;20491;-88
2021/04/08 04:09:36;;;;;;;10.50;3.70;;;;;;;21.82;14.97;97849.78;5101377;28;20024;-87
2021/04/08 04:12:03;;;;;;;11.60;4.30;;;;;;;21.21;15.49;97849.88;5093846;28;20090;-88
2021/04/08 04:14:31;;;;;;;6.05;3.03;;;;;;;21.56;15.29;97862.56;5096013;28;20040;-87
2021/04/08 04:17:04;;;;;;;11.75;4.95;;;;;;;21.38;15.44;97856.41;5088037;28;20031;-86
2021/04/08 04:19:30;;;;;;;5.90;2.90;;;;;;;21.46;15.50;97859.91;5073595;28;20028;-86
2021/04/08 04:21:56;;;;;;;4.18;2.55;;;;;;;21.19;15.65;97866.25;5088963;28;20024;-89
2021/04/08 04:24:22;;;;;;;7.25;3.67;;;;;;;20.94;15.88;97867.75;5073530;28;20021;-89
2021/04/08 04:26:49;;;;;;;46.88;16.40;;;;;;;20.89;16.03;97865.44;5057028;28;20589;-89
2021/04/08 04:29:15;;;;;;;61.20;18.90;;;;;;;21.30;15.82;97872.50;5091675;28;20392;-90
2021/04/08 04:31:41;;;;;;;29.98;10.43;;;;;;;21.34;15.67;97872.44;5090573;28;20380;-89
2021/04/08 04:34:07;;;;;;;23.77;8.25;;;;;;;21.30;15.91;97866.13;5092245;28;20256;-88
2021/04/08 04:36:34;;;;;;;32.13;11.77;;;;;;;21.49;15.72;97876.63;5086767;28;20027;-88
2021/04/08 04:39:04;;;;;;;62.83;18.85;;;;;;;21.99;15.42;97871.06;5090047;28;20154;-87
2021/04/08 04:41:30;;;;;;;36.20;11.68;;;;;;;22.43;15.06;97872.66;5086486;28;20028;-88
2021/04/08 04:43:56;;;;;;;26.45;8.90;;;;;;;22.59;15.01;97876.34;5091843;28;20741;-88
2021/04/08 04:46:22;;;;;;;21.95;7.50;;;;;;;22.86;14.86;97875.47;5092925;28;20073;-87
2021/04/08 04:48:49;;;;;;;26.92;10.52;;;;;;;22.74;14.83;97876.09;5089765;28;20055;-87
2021/04/08 04:51:15;;;;;;;19.75;7.65;;;;;;;22.88;14.99;97878.63;5091281;28;20036;-87
2021/04/08 04:53:41;;;;;;;15.02;6.15;;;;;;;23.08;14.81;97885.03;5085731;28;20028;-88
2021/04/08 04:56:07;;;;;;;19.58;7.72;;;;;;;23.20;14.72;97887.16;5092970;28;20106;-87
2021/04/08 04:58:33;;;;;;;12.10;5.60;;;;;;;23.17;14.76;97890.84;5090833;28;20036;-88
2021/04/08 05:00:59;;;;;;;13.32;5.90;;;;;;;23.65;14.63;97899.38;5089408;28;20040;-86
2021/04/08 05:03:25;;;;;;;10.57;5.13;;;;;;;23.65;14.49;97896.56;5093611;28;20035;-89
2021/04/08 05:05:51;;;;;;;12.45;6.20;;;;;;;23.61;14.79;97903.50;5090618;28;20036;-89
2021/04/08 05:08:17;;;;;;;13.88;6.40;;;;;;;23.43;14.61;97905.91;5074009;28;20395;-87
2021/04/08 05:10:43;;;;;;;18.33;7.93;;;;;;;23.57;15.03;97909.16;5075038;28;20043;-90
2021/04/08 05:13:09;;;;;;;31.33;12.35;;;;;;;23.30;15.36;97905.75;5112528;28;20058;-90
2021/04/08 05:15:35;;;;;;;25.70;10.07;;;;;;;23.48;15.41;97914.56;5093904;28;20032;-90
2021/04/08 05:18:02;;;;;;;25.67;10.48;;;;;;;23.38;15.53;97912.81;5090631;28;20130;-92
2021/04/08 05:20:28;;;;;;;49.78;19.10;;;;;;;23.28;15.95;97922.19;5091327;28;20032;-89
2021/04/08 05:22:55;;;;;;;42.63;15.65;;;;;;;23.47;16.04;97926.22;5087000;28;20391;-89
2021/04/08 05:25:21;;;;;;;15.25;6.55;;;;;;;22.95;16.64;97938.06;5092250;28;20036;-89
2021/04/08 05:27:47;;;;;;;10.13;6.28;;;;;;;22.45;17.40;97938.16;5084279;28;20460;-89
2021/04/08 05:30:13;;;;;;;11.18;5.60;;;;;;;22.47;17.91;97944.16;5088886;28;20027;-89
2021/04/08 05:32:40;;;;;;;9.13;5.25;;;;;;;22.78;17.02;97944.78;5087818;28;20105;-86
2021/04/08 05:35:06;;;;;;;8.02;4.65;;;;;;;22.32;17.57;97953.19;5081846;28;20029;-87
2021/04/08 05:37:32;;;;;;;9.88;5.03;;;;;;;22.49;17.66;97955.69;5088861;28;22118;-88
2021/04/08 05:39:58;;;;;;;9.60;5.55;;;;;;;21.35;18.93;97950.22;5068439;28;20105;-92
2021/04/08 05:42:24;;;;;;;19.13;8.35;;;;;;;21.99;18.26;97957.72;5087587;28;20396;-89
2021/04/08 05:44:51;;;;;;;9.32;4.75;;;;;;;22.45;17.89;97954.19;5086155;28;20451;-91
2021/04/08 05:47:17;;;;;;;10.60;5.15;;;;;;;22.15;18.37;97960.66;5071107;28;20118;-87
2021/04/08 05:49:43;;;;;;;8.05;3.85;;;;;;;22.64;17.77;97962.66;5085388;28;20028;-89
2021/04/08 05:52:09;;;;;;;9.38;4.43;;;;;;;22.62;17.97;97965.09;5085214;28;20028;-89
2021/04/08 05:54:35;;;;;;;13.35;6.65;;;;;;;22.73;17.79;97966.91;5091836;28;20056;-88
2021/04/08 05:57:01;;;;;;;7.03;3.85;;;;;;;22.00;18.56;97964.91;5093049;28;20050;-88
2021/04/08 05:59:27;;;;;;;5.15;2.97;;;;;;;21.87;18.73;97970.28;5093751;28;20070;-88
2021/04/08 06:01:53;;;;;;;9.95;3.90;;;;;;;22.50;18.05;97976.06;5085875;28;20422;-87
2021/04/08 06:04:20;;;;;;;8.55;3.60;;;;;;;22.86;17.72;97985.44;5095728;28;20032;-88
2021/04/08 06:06:46;;;;;;;5.93;3.45;;;;;;;23.14;17.34;97979.31;5095042;28;20404;-92
2021/04/08 06:09:12;;;;;;;6.68;3.50;;;;;;;21.33;19.19;97994.53;5075510;28;20082;-88
2021/04/08 06:11:38;;;;;;;4.15;3.25;;;;;;;21.80;18.95;97987.13;5085873;28;20111;-91
2021/04/08 06:14:04;;;;;;;6.20;3.75;;;;;;;22.30;18.50;97995.59;5081034;28;20132;-88
2021/04/08 06:16:30;;;;;;;5.53;3.40;;;;;;;22.91;17.95;97993.34;5092244;28;20039;-89
2021/04/08 06:18:56;;;;;;;5.55;3.40;;;;;;;23.05;17.65;97995.88;5093792;28;20442;-89
2021/04/08 06:21:23;;;;;;;6.82;3.63;;;;;;;22.35;18.45;98002.69;5085908;28;20554;-92
2021/04/08 06:23:52;;;;;;;12.40;5.03;;;;;;;22.98;17.83;98015.63;5064589;28;20077;-88
2021/04/08 06:26:18;;;;;;;6.80;3.90;;;;;;;22.27;18.73;98015.22;5077745;28;20404;-93
2021/04/08 06:28:44;;;;;;;4.55;3.13;;;;;;;22.24;18.53;98004.88;5093042;28;20035;-89
2021/04/08 06:31:10;;;;;;;7.03;3.90;;;;;;;22.43;18.58;98018.94;5093408;28;20098;-92
2021/04/08 06:33:37;;;;;;;6.10;2.88;;;;;;;22.76;18.26;98013.63;5091874;28;20142;-89
2021/04/08 06:36:03;;;;;;;6.15;3.50;;;;;;;22.71;18.23;98023.28;5092993;28;20060;-87
2021/04/08 06:38:29;;;;;;;5.25;3.50;;;;;;;22.52;18.22;98024.00;5093858;28;20043;-91
2021/04/08 06:40:55;;;;;;;6.53;3.35;;;;;;;22.13;19.01;98021.81;5094824;28;20048;-89
2021/04/08 06:43:21;;;;;;;4.78;2.90;;;;;;;22.62;18.35;98023.84;5091440;28;20061;-86
2021/04/08 06:45:52;;;;;;;7.97;4.68;;;;;;;22.10;18.94;98036.63;5094247;28;20095;-89
2021/04/08 06:48:28;;;;;;;4.55;3.20;;;;;;;19.53;21.59;98041.78;5097407;28;20027;-88
2021/04/08 06:50:55;;;;;;;3.92;2.92;;;;;;;19.26;21.58;98052.59;5099929;28;20490;-90
2021/04/08 06:53:21;;;;;;;5.28;3.45;;;;;;;19.25;21.85;98043.44;5095486;28;20024;-90
2021/04/08 06:55:48;;;;;;;8.10;4.72;;;;;;;19.29;21.70;98041.44;5093367;28;20028;-89
2021/04/08 06:58:15;;;;;;;5.45;3.72;;;;;;;20.00;21.38;98055.84;5085466;28;20040;-89
2021/04/08 07:00:42;;;;;;;8.18;4.57;;;;;;;20.18;20.83;98061.34;5090794;28;20036;-89
2021/04/08 07:03:09;;;;;;;7.10;4.13;;;;;;;20.25;20.44;98049.38;5087009;28;20036;-89
2021/04/08 07:05:36;;;;;;;5.90;3.63;;;;;;;19.04;21.96;98057.41;5094611;28;20028;-90
2021/04/08 07:08:02;;;;;;;4.82;3.83;;;;;;;17.80;23.20;98080.75;5089735;28;20032;-88
2021/04/08 07:10:28;;;;;;;4.93;4.00;;;;;;;18.90;22.92;98065.81;5082817;28;20093;-88
2021/04/08 07:12:55;;;;;;;6.70;3.92;;;;;;;18.40;22.73;98066.97;5081548;28;20127;-89
2021/04/08 07:15:23;;;;;;;7.05;4.70;;;;;;;18.80;22.65;98071.34;5087126;28;20032;-89
2021/04/08 07:17:49;;;;;;;9.98;5.90;;;;;;;18.74;22.90;98076.53;5088851;28;20028;-87
2021/04/08 07:20:16;;;;;;;5.82;3.72;;;;;;;18.15;23.53;98080.84;5079828;28;20039;-89
2021/04/08 07:22:42;;;;;;;7.20;4.50;;;;;;;18.59;22.54;98084.09;5087650;28;20115;-88
2021/04/08 07:25:19;;;;;;;5.07;4.07;;;;;;;19.92;20.99;98086.97;5081516;28;20024;-88
2021/04/08 07:27:46;;;;;;;7.30;4.18;;;;;;;19.20;22.11;98104.31;5083013;28;20082;-88
2021/04/08 07:30:16;;;;;;;6.45;3.88;;;;;;;18.65;22.63;98103.94;5087408;28;20028;-88
2021/04/08 07:32:42;;;;;;;7.00;4.50;;;;;;;18.58;22.42;98101.94;5089210;28;20067;-87
2021/04/08 07:35:15;;;;;;;6.35;4.07;;;;;;;19.66;21.42;98113.34;5088246;28;20534;-87
2021/04/08 07:37:43;;;;;;;5.13;3.80;;;;;;;19.79;21.32;98117.25;5084341;28;20058;-87
2021/04/08 07:40:21;;;;;;;9.95;4.65;;;;;;;19.07;21.70;98120.59;5087976;28;20028;-87
2021/04/08 07:42:47;;;;;;;7.43;4.45;;;;;;;18.48;22.77;98124.97;5092684;28;20032;-87
2021/04/08 07:45:27;;;;;;;9.80;5.43;;;;;;;18.69;22.04;98121.44;5071115;28;20118;-85
2021/04/08 07:48:04;;;;;;;6.65;4.40;;;;;;;16.80;23.76;98149.91;5067090;28;20391;-87
2021/04/08 07:50:32;;;;;;;9.43;4.60;;;;;;;18.11;23.57;98146.69;5089488;28;20020;-88
2021/04/08 07:52:59;;;;;;;8.82;5.18;;;;;;;19.28;21.68;98128.13;5094070;28;20422;-88
2021/04/08 07:55:29;;;;;;;9.75;5.05;;;;;;;18.58;22.42;98145.63;5087846;28;20058;-88
2021/04/08 07:58:16;;;;;;;9.63;5.20;;;;;;;18.14;22.80;98143.16;5085334;28;20496;-88
2021/04/08 08:01:00;;;;;;;9.40;5.25;;;;;;;18.96;22.16;98158.78;5086432;28;20375;-90
2021/04/08 08:03:31;;;;;;;7.40;4.25;;;;;;;19.82;21.17;98149.91;5082476;28;20032;-90
2021/04/08 08:06:01;;;;;;;6.97;4.15;;;;;;;20.75;20.23;98158.59;5060164;28;20032;-90
2021/04/08 08:08:45;;;;;;;11.88;4.60;;;;;;;20.57;20.45;98167.88;5084037;28;20040;-90
2021/04/08 08:11:14;;;;;;;7.82;4.93;;;;;;;18.82;21.82;98158.78;5084082;28;20044;-88
2021/04/08 08:13:54;;;;;;;11.57;4.88;;;;;;;18.77;22.77;98177.84;5084695;28;20037;-88
2021/04/08 08:16:26;;;;;;;6.57;4.10;;;;;;;17.99;23.84;98183.19;5087059;28;20122;-89
2021/04/08 08:18:53;;;;;;;9.23;5.07;;;;;;;18.77;23.21;98173.06;5085853;28;20546;-89
2021/04/08 08:21:38;;;;;;;8.57;4.78;;;;;;;18.86;23.10;98192.16;5083472;28;20040;-91
2021/04/08 08:24:09;;;;;;;7.05;4.00;;;;;;;20.44;21.70;98188.28;5065810;28;20044;-90
2021/04/08 08:26:35;;;;;;;;;;;;;;;19.36;22.60;98185.44;5087237;28;20020;-91
2021/04/08 08:29:04;;;;;;;10.38;5.07;;;;;;;20.27;21.63;98192.75;5084992;28;19916;-92
2021/04/08 08:31:54;;;;;;;8.55;4.75;;;;;;;20.60;21.01;98197.75;5069227;28;20032;-93
2021/04/08 08:34:28;;;;;;;7.85;3.95;;;;;;;20.99;20.55;98200.25;5085002;28;20016;-94
2021/04/08 08:37:00;;;;;;;7.25;4.05;;;;;;;20.99;20.31;98205.84;5084720;28;20028;-93
2021/04/08 08:39:31;;;;;;;7.47;4.65;;;;;;;20.16;21.05;98202.31;5084378;28;20044;-94
2021/04/08 08:42:00;;;;;;;8.00;4.53;;;;;;;19.79;21.60;98219.56;5086061;28;20552;-96
2021/04/08 08:44:27;;;;;;;9.48;4.28;;;;;;;19.83;21.27;98223.13;5090678;28;20110;-95
2021/04/08 08:47:09;;;;;;;7.90;4.15;;;;;;;20.05;21.13;98227.44;5102608;28;20048;-96
2021/04/08 08:49:51;;;;;;;9.02;5.35;;;;;;;18.41;22.86;98227.78;5096689;28;20039;-96
2021/04/08 08:52:23;;;;;;;8.15;4.88;;;;;;;17.11;24.64;98238.91;5089569;28;20036;-95
2021/04/08 08:54:50;;;;;;;8.30;4.65;;;;;;;15.49;26.75;98261.88;5087243;28;20440;-95
2021/04/08 08:57:17;;;;;;;8.15;4.15;;;;;;;15.59;27.29;98246.63;5088712;28;20028;-95
2021/04/08 08:59:47;;;;;;;7.55;4.97;;;;;;;16.58;25.97;98248.69;5084918;28;20028;-94
2021/04/08 09:02:14;;;;;;;10.52;4.85;;;;;;;17.26;24.92;98246.19;5082334;28;21039;-93
2021/04/08 09:04:41;;;;;;;8.13;4.45;;;;;;;17.74;25.55;98246.13;5081977;28;20377;-94
2021/04/08 09:07:10;;;;;;;6.88;4.38;;;;;;;18.90;23.12;98241.06;5085827;28;20488;-92
2021/04/08 09:09:43;;;;;;;7.78;4.45;;;;;;;19.34;23.21;98240.69;5082651;28;20031;-92
2021/04/08 09:12:15;;;;;;;8.68;3.95;;;;;;;19.28;23.52;98237.50;5089439;28;20032;-91
2021/04/08 09:14:43;;;;;;;12.75;4.88;;;;;;;21.06;21.27;98239.31;5092521;28;20150;-91
2021/04/08 09:17:10;;;;;;;11.52;5.45;;;;;;;18.46;23.67;98243.34;5093446;28;20024;-90
2021/04/08 09:19:36;;;;;;;8.65;4.80;;;;;;;17.35;25.37;98248.63;5071191;28;20502;-90
2021/04/08 09:22:11;;;;;;;11.82;5.53;;;;;;;18.43;24.22;98266.31;5083019;28;20033;-91
2021/04/08 09:24:45;;;;;;;8.25;5.47;;;;;;;18.43;24.28;98261.56;5087026;28;20060;-91
2021/04/08 09:27:12;;;;;;;9.48;5.13;;;;;;;19.23;23.92;98267.69;5087281;28;20032;-91
2021/04/08 09:29:43;;;;;;;13.65;5.75;;;;;;;19.21;23.21;98270.09;5085506;28;20578;-90
2021/04/08 09:32:32;;;;;;;9.85;5.10;;;;;;;20.67;22.10;98263.84;5092594;28;20040;-90
2021/04/08 09:35:04;;;;;;;11.27;4.63;;;;;;;19.74;22.70;98267.34;5089533;28;20032;-92
2021/04/08 09:37:45;;;;;;;6.93;3.63;;;;;;;19.98;22.34;98272.84;5095595;28;20040;-93
2021/04/08 09:40:25;;;;;;;8.65;5.10;;;;;;;19.46;22.53;98268.16;5073880;28;20036;-92
2021/04/08 09:42:53;;;;;;;8.80;4.45;;;;;;;19.55;21.93;98267.75;5090463;28;20036;-90
2021/04/08 09:45:20;;;;;;;7.30;3.17;;;;;;;20.01;22.02;98265.69;5094607;28;20046;-91
2021/04/08 09:47:46;;;;;;;5.30;3.17;;;;;;;19.21;23.04;98267.31;5066335;28;20032;-92
2021/04/08 09:50:51;;;;;;;5.43;3.28;;;;;;;18.28;22.69;98257.13;5089981;28;20070;-91
2021/04/08 09:53:40;;;;;;;5.88;2.83;;;;;;;19.50;21.71;98265.34;5024731;28;20038;-91
2021/04/08 09:56:07;;;;;;;7.47;3.45;;;;;;;18.71;22.78;98268.44;4992519;28;20060;-91
2021/04/08 09:58:37;;;;;;;8.05;3.33;;;;;;;18.79;22.29;98275.59;5061810;28;20040;-91
2021/04/08 10:01:07;;;;;;;4.35;2.03;;;;;;;19.00;22.27;98275.63;5084362;28;20024;-91
2021/04/08 10:03:41;;;;;;;4.85;1.95;;;;;;;19.24;22.40;98280.44;5088707;28;20433;-91
2021/04/08 10:06:14;;;;;;;3.78;1.92;;;;;;;18.48;20.71;98261.19;5089671;28;20017;-92
2021/04/08 10:08:40;;;;;;;4.57;1.80;;;;;;;18.54;21.78;98267.19;5085223;28;20046;-92
2021/04/08 10:11:07;;;;;;;2.97;1.40;;;;;;;19.42;20.77;98278.47;5084799;28;20032;-92
2021/04/08 10:13:35;;;;;;;5.38;1.77;;;;;;;20.58;19.41;98269.84;5058387;28;20032;-92
2021/04/08 10:16:12;;;;;;;4.38;1.55;;;;;;;19.05;21.75;98284.41;5080632;28;20032;-92
2021/04/08 10:18:39;;;;;;;6.03;2.10;;;;;;;19.32;21.06;98284.84;5087181;28;20116;-92
2021/04/08 10:21:17;;;;;;;4.60;2.53;;;;;;;19.34;20.37;98274.09;5089033;28;20020;-93
2021/04/08 10:23:49;;;;;;;4.22;2.03;;;;;;;18.53;21.62;98291.41;5084623;28;20466;-91
2021/04/08 10:26:21;;;;;;;5.05;2.20;;;;;;;17.07;21.97;98301.06;5093581;28;20082;-92
2021/04/08 10:28:51;;;;;;;6.20;2.95;;;;;;;18.47;20.94;98294.97;5093596;28;20040;-92
2021/04/08 10:31:32;;;;;;;2.93;1.90;;;;;;;19.42;18.94;98288.84;5087661;28;20038;-91
2021/04/08 10:34:08;;;;;;;8.52;3.83;;;;;;;19.72;18.99;98292.00;5090570;28;20551;-96
2021/04/08 10:36:45;;;;;;;5.00;3.80;;;;;;;20.31;18.94;98290.31;5087810;28;20064;-94
2021/04/08 10:39:24;;;;;;;13.27;7.78;;;;;;;20.80;18.52;98276.13;5091437;28;20036;-96
2021/04/08 10:42:09;;;;;;;4.65;2.33;;;;;;;21.18;19.58;98280.72;5097000;28;20054;-96
2021/04/08 10:44:37;;;;;;;2.58;1.52;;;;;;;20.99;19.68;98284.00;5094976;28;20768;-96
2021/04/08 10:47:11;;;;;;;7.47;3.38;;;;;;;19.02;21.02;98293.53;5087000;28;20086;-94
2021/04/08 10:49:44;;;;;;;6.72;2.38;;;;;;;19.07;21.28;98292.34;5099042;28;20028;-96
2021/04/08 10:52:17;;;;;;;3.38;1.88;;;;;;;19.27;20.76;98301.94;5099806;28;20060;-95
2021/04/08 10:54:48;;;;;;;3.97;2.40;;;;;;;17.52;22.33;98320.16;5103037;28;20067;-96
2021/04/08 10:57:15;;;;;;;8.23;3.03;;;;;;;15.57;28.20;98343.81;5098586;28;20032;-96
2021/04/08 10:59:43;;;;;;;7.13;3.65;;;;;;;14.76;30.31;98353.41;5095392;28;20040;-95
2021/04/08 11:02:29;;;;;;;5.38;2.95;;;;;;;13.92;32.03;98360.63;5090026;28;20532;-96
2021/04/08 11:04:58;;;;;;;4.18;2.38;;;;;;;15.05;30.18;98351.97;5089789;28;20036;-93
2021/04/08 11:07:26;;;;;;;5.45;2.17;;;;;;;16.01;28.21;98349.63;5074998;28;20028;-95
2021/04/08 11:09:53;;;;;;;4.03;2.33;;;;;;;18.76;24.11;98340.38;5088113;28;20507;-90
2021/04/08 11:12:26;;;;;;;2.85;1.55;;;;;;;20.16;22.18;98336.13;5086925;28;20033;-91
2021/04/08 11:14:56;;;;;;;3.08;1.40;;;;;;;20.98;20.81;98341.00;5089085;28;20044;-89
2021/04/08 11:17:24;;;;;;;2.27;1.10;;;;;;;21.31;20.15;98339.66;5089307;28;20028;-89
2021/04/08 11:19:52;;;;;;;4.25;1.65;;;;;;;21.88;19.36;98351.22;5079784;28;20099;-91
2021/04/08 11:22:32;;;;;;;5.00;2.70;;;;;;;22.62;19.21;98359.69;5073297;28;20043;-92
2021/04/08 11:24:59;;;;;;;3.17;1.73;;;;;;;22.72;19.18;98359.97;5084538;28;21450;-93
2021/04/08 11:27:28;;;;;;;4.88;1.85;;;;;;;23.05;19.02;98367.56;5082589;28;20131;-93
2021/04/08 11:29:55;;;;;;;5.00;2.42;;;;;;;22.91;18.95;98378.94;5082700;28;20105;-93
2021/04/08 11:32:21;;;;;;;2.88;2.10;;;;;;;21.68;19.82;98384.47;5086604;28;20051;-94
2021/04/08 11:34:48;;;;;;;4.50;2.78;;;;;;;19.61;22.20;98408.19;5089422;28;20369;-94
2021/04/08 11:37:17;;;;;;;4.07;2.00;;;;;;;16.84;26.54;98409.41;5095079;28;20088;-93
2021/04/08 11:39:44;;;;;;;3.70;1.55;;;;;;;18.38;24.87;98414.03;5096648;28;20028;-93
2021/04/08 11:42:18;;;;;;;4.70;2.50;;;;;;;18.44;24.42;98404.13;5095502;28;20533;-91
2021/04/08 11:44:45;;;;;;;2.50;1.25;;;;;;;20.09;23.17;98406.63;5087978;28;20376;-91